createdAt,value
2023-02-19T00:01:31.591Z,7.02
2023-02-19T00:04:22.284Z,7.01
2023-02-19T00:07:04.240Z,6.98
2023-02-19T00:09:45.661Z,6.94
2023-02-19T00:12:33.248Z,6.91
2023-02-19T00:15:07.903Z,6.92
2023-02-19T00:17:56.245Z,6.93
2023-02-19T00:20:37.236Z,6.92
2023-02-19T00:23:18.419Z,6.92
2023-02-19T00:26:06.017Z,6.91
2023-02-19T00:28:54.394Z,6.91
2023-02-19T00:31:43.330Z,6.94
2023-02-19T00:34:19.378Z,6.93
2023-02-19T00:37:07.235Z,6.94
2023-02-19T00:39:41.370Z,6.95
2023-02-19T00:42:29.258Z,6.93
2023-02-19T00:45:04.427Z,6.92
2023-02-19T00:47:52.240Z,6.92
2023-02-19T00:50:26.371Z,6.91
2023-02-19T00:53:14.236Z,6.89
2023-02-19T00:55:55.253Z,6.88
2023-02-19T00:58:50.230Z,6.87
2023-02-19T01:01:38.288Z,6.88
2023-02-19T01:04:13.547Z,6.92
2023-02-19T01:07:01.238Z,6.93
2023-02-19T01:09:35.376Z,6.94
2023-02-19T01:12:23.238Z,6.93
2023-02-19T01:14:58.373Z,6.93
2023-02-19T01:17:46.232Z,6.95
2023-02-19T01:20:28.228Z,6.97
2023-02-19T01:23:25.296Z,6.97
2023-02-19T01:26:15.268Z,6.96
2023-02-19T01:28:50.382Z,6.93
2023-02-19T01:31:38.361Z,6.93
2023-02-19T01:34:13.402Z,6.95
2023-02-19T01:37:01.431Z,6.96
2023-02-19T01:39:36.553Z,6.96
2023-02-19T01:42:24.245Z,6.93
2023-02-19T01:45:28.408Z,6.90
2023-02-19T01:48:20.437Z,6.90
2023-02-19T01:51:08.741Z,6.93
2023-02-19T01:54:08.241Z,6.94
2023-02-19T01:56:57.233Z,6.93
2023-02-19T01:59:39.223Z,6.92
2023-02-19T02:02:35.227Z,6.94
2023-02-19T02:05:32.224Z,6.96
2023-02-19T02:08:27.753Z,6.96
2023-02-19T02:11:15.233Z,6.95
2023-02-19T02:13:56.358Z,6.93
2023-02-19T02:17:15.225Z,6.95
2023-02-19T02:20:03.241Z,6.98
2023-02-19T02:22:49.623Z,6.98
2023-02-19T02:25:56.238Z,6.96
2023-02-19T02:28:58.199Z,6.94
2023-02-19T02:31:58.325Z,6.93
2023-02-19T02:35:10.243Z,6.92
2023-02-19T02:38:00.235Z,6.90
2023-02-19T02:40:41.357Z,6.89
2023-02-19T02:43:22.228Z,6.87
2023-02-19T02:46:10.247Z,6.91
2023-02-19T02:49:00.234Z,6.93
2023-02-19T02:51:47.420Z,6.93
2023-02-19T02:54:50.231Z,6.92
2023-02-19T02:57:31.340Z,6.89
2023-02-19T03:00:13.223Z,6.89
2023-02-19T03:03:01.425Z,6.90
2023-02-19T03:05:51.870Z,6.88
2023-02-19T03:08:46.231Z,6.84
2023-02-19T03:11:46.241Z,6.80
2023-02-19T03:14:49.017Z,6.78
2023-02-19T03:18:03.444Z,6.77
2023-02-19T03:20:47.371Z,6.76
2023-02-19T03:23:49.201Z,6.72
2023-02-19T03:26:30.361Z,6.69
2023-02-19T03:29:30.249Z,6.68
2023-02-19T03:32:36.447Z,6.70
2023-02-19T03:35:28.242Z,6.70
2023-02-19T03:38:22.363Z,6.67
2023-02-19T03:41:40.207Z,6.62
2023-02-19T03:44:32.232Z,6.61
2023-02-19T03:47:34.229Z,6.58
2023-02-19T03:50:43.218Z,6.57
2023-02-19T03:53:45.565Z,6.55
2023-02-19T03:56:41.194Z,6.55
2023-02-19T03:59:24.352Z,6.56
2023-02-19T04:02:26.248Z,6.54
2023-02-19T04:05:38.215Z,6.53
2023-02-19T04:08:27.212Z,6.50
2023-02-19T04:11:02.396Z,6.49
2023-02-19T04:13:55.407Z,6.53
2023-02-19T04:16:35.572Z,6.56
2023-02-19T04:19:27.413Z,6.58
2023-02-19T04:22:16.406Z,6.58
2023-02-19T04:25:00.415Z,6.58
2023-02-19T04:27:48.339Z,6.59
2023-02-19T04:30:29.306Z,6.59
2023-02-19T04:33:17.212Z,6.60
2023-02-19T04:35:51.658Z,6.61
2023-02-19T04:38:39.208Z,6.64
2023-02-19T04:41:13.840Z,6.67
2023-02-19T04:44:02.216Z,6.70
2023-02-19T04:46:36.599Z,6.71
2023-02-19T04:49:24.215Z,6.71
2023-02-19T04:51:58.652Z,6.70
2023-02-19T04:54:46.192Z,6.69
2023-02-19T04:57:41.209Z,6.70
2023-02-19T05:00:29.201Z,6.69
2023-02-19T05:03:04.327Z,6.67
2023-02-19T05:05:52.193Z,6.66
2023-02-19T05:08:27.319Z,6.68
2023-02-19T05:11:17.216Z,6.69
2023-02-19T05:13:52.414Z,6.71
2023-02-19T05:16:40.202Z,6.70
2023-02-19T05:19:20.362Z,6.69
2023-02-19T05:22:08.221Z,6.70
2023-02-19T05:24:43.627Z,6.71
2023-02-19T05:27:32.414Z,6.71
2023-02-19T05:30:07.610Z,6.69
2023-02-19T05:32:55.398Z,6.67
2023-02-19T05:35:31.331Z,6.64
2023-02-19T05:38:19.243Z,6.61
2023-02-19T05:41:01.195Z,6.61
2023-02-19T05:43:58.230Z,6.61
2023-02-19T05:46:47.325Z,6.60
2023-02-19T05:49:29.212Z,6.58
2023-02-19T05:52:24.192Z,6.56
2023-02-19T05:55:12.200Z,6.58
2023-02-19T05:57:51.341Z,6.57
2023-02-19T06:00:40.259Z,6.59
2023-02-19T06:03:22.389Z,6.59
2023-02-19T06:06:17.173Z,6.64
2023-02-19T06:09:05.215Z,6.67
2023-02-19T06:11:40.328Z,6.68
2023-02-19T06:14:28.237Z,6.70
2023-02-19T06:17:03.347Z,6.74
2023-02-19T06:19:51.203Z,6.80
2023-02-19T06:22:26.321Z,6.85
2023-02-19T06:25:19.404Z,6.89
2023-02-19T06:28:01.781Z,6.93
2023-02-19T06:30:57.188Z,6.95
2023-02-19T06:33:53.199Z,6.97
2023-02-19T06:36:41.390Z,7.00
2023-02-19T06:39:24.176Z,7.01
2023-02-19T06:42:19.283Z,6.99
2023-02-19T06:45:07.181Z,6.98
2023-02-19T06:47:42.585Z,7.00
2023-02-19T06:50:30.392Z,7.04
2023-02-19T06:53:05.357Z,7.06
2023-02-19T06:56:06.200Z,7.05
2023-02-19T06:58:42.305Z,7.04
2023-02-19T07:01:31.195Z,7.04
2023-02-19T07:04:13.239Z,7.06
2023-02-19T07:07:01.195Z,7.07
2023-02-19T07:09:42.520Z,7.06
2023-02-19T07:12:24.409Z,7.07
2023-02-19T07:15:05.516Z,7.14
2023-02-19T07:17:47.171Z,7.24
2023-02-19T07:20:28.350Z,7.34
2023-02-19T07:23:09.602Z,7.42
2023-02-19T07:25:57.200Z,7.43
2023-02-19T07:28:31.622Z,7.42
2023-02-19T07:31:19.274Z,7.43
2023-02-19T07:34:14.170Z,7.48
2023-02-19T07:37:02.181Z,7.57
2023-02-19T07:39:37.306Z,7.68
2023-02-19T07:42:25.188Z,7.75
2023-02-19T07:45:00.733Z,7.82
2023-02-19T07:47:49.186Z,7.93
2023-02-19T07:50:24.298Z,8.02
2023-02-19T07:53:12.205Z,8.12
2023-02-19T07:55:47.315Z,8.25
2023-02-19T07:58:36.189Z,8.41
2023-02-19T08:01:41.239Z,8.62
2023-02-19T08:04:22.200Z,8.80
2023-02-19T08:07:03.362Z,8.90
2023-02-19T08:09:45.181Z,8.88
2023-02-19T08:12:44.858Z,8.75
2023-02-19T08:15:26.196Z,8.64
2023-02-19T08:18:07.851Z,8.54
2023-02-19T08:20:50.170Z,8.45
2023-02-19T08:23:39.167Z,8.38
2023-02-19T08:26:20.200Z,8.32
2023-02-19T08:29:01.293Z,8.25
2023-02-19T08:31:42.369Z,8.23
2023-02-19T08:34:30.230Z,8.21
2023-02-19T08:37:25.221Z,8.14
2023-02-19T08:40:13.187Z,7.99
2023-02-19T08:42:48.308Z,7.83
2023-02-19T08:45:36.171Z,7.70
2023-02-19T08:48:18.177Z,7.57
2023-02-19T08:51:10.493Z,7.46
2023-02-19T08:53:53.176Z,7.39
2023-02-19T08:56:48.187Z,7.29
2023-02-19T08:59:36.166Z,7.19
2023-02-19T09:02:13.189Z,7.09
2023-02-19T09:05:01.335Z,7.01
2023-02-19T09:07:36.286Z,6.97
2023-02-19T09:10:24.176Z,6.96
2023-02-19T09:13:05.163Z,6.91
2023-02-19T09:16:00.222Z,6.85
2023-02-19T09:18:48.171Z,6.83
2023-02-19T09:21:35.345Z,6.84
2023-02-19T09:24:30.172Z,6.86
2023-02-19T09:27:23.169Z,6.91
2023-02-19T09:29:59.024Z,6.94
2023-02-19T09:32:48.168Z,6.87
2023-02-19T09:35:23.290Z,6.77
2023-02-19T09:38:11.382Z,6.68
2023-02-19T09:40:53.160Z,6.52
2023-02-19T09:43:48.372Z,6.34
2023-02-19T09:46:54.164Z,6.16
2023-02-19T09:49:40.058Z,5.95
2023-02-19T09:52:45.165Z,5.79
2023-02-19T09:55:45.473Z,5.66
2023-02-19T09:58:37.154Z,5.53
2023-02-19T10:01:13.663Z,5.49
2023-02-19T10:04:02.180Z,5.48
2023-02-19T10:06:39.289Z,5.51
2023-02-19T10:09:33.584Z,5.53
2023-02-19T10:12:10.158Z,5.56
2023-02-19T10:15:04.038Z,5.57
2023-02-19T10:17:39.443Z,5.57
2023-02-19T10:20:32.170Z,5.51
2023-02-19T10:23:09.287Z,5.43
2023-02-19T10:26:06.171Z,5.31
2023-02-19T10:28:42.365Z,5.23
2023-02-19T10:31:32.320Z,5.13
2023-02-19T10:34:32.636Z,5.04
2023-02-19T10:37:14.809Z,5.00
2023-02-19T10:40:04.209Z,4.93
2023-02-19T10:42:53.374Z,4.86
2023-02-19T10:45:45.411Z,4.75
2023-02-19T10:49:07.156Z,4.68
2023-02-19T10:51:48.277Z,4.62
2023-02-19T10:54:34.376Z,4.60
2023-02-19T10:57:25.928Z,4.58
2023-02-19T11:00:11.200Z,4.53
2023-02-19T11:02:52.467Z,4.47
2023-02-19T11:05:34.138Z,4.45
2023-02-19T11:08:30.308Z,4.44
2023-02-19T11:11:11.472Z,4.43
2023-02-19T11:13:52.305Z,4.44
2023-02-19T11:16:46.164Z,4.42
2023-02-19T11:19:55.409Z,4.36
2023-02-19T11:22:42.068Z,4.27
2023-02-19T11:25:32.151Z,4.20
2023-02-19T11:28:35.842Z,4.21
2023-02-19T11:31:33.232Z,4.27
2023-02-19T11:34:30.161Z,4.31
2023-02-19T11:37:28.139Z,4.38
2023-02-19T11:40:10.156Z,4.45
2023-02-19T11:43:29.262Z,4.63
2023-02-19T11:46:33.345Z,4.77
2023-02-19T11:49:28.424Z,4.85
2023-02-19T11:52:54.249Z,4.95
2023-02-19T11:55:30.029Z,5.06
2023-02-19T11:58:42.162Z,5.10
2023-02-19T12:01:24.580Z,5.19
2023-02-19T12:04:27.186Z,5.24
2023-02-19T12:07:36.139Z,5.26
2023-02-19T12:10:29.038Z,5.32
2023-02-19T12:13:41.336Z,5.38
2023-02-19T12:16:50.312Z,5.43
2023-02-19T12:19:53.375Z,5.47
2023-02-19T12:22:52.165Z,5.49
2023-02-19T12:25:52.282Z,5.49
2023-02-19T12:28:55.129Z,5.38
2023-02-19T12:32:02.298Z,5.26
2023-02-19T12:34:59.123Z,5.23
2023-02-19T12:37:45.550Z,5.38
2023-02-19T12:41:11.128Z,5.55
2023-02-19T12:43:55.123Z,5.69
2023-02-19T12:46:47.367Z,5.71
2023-02-19T12:49:47.071Z,5.74
2023-02-19T12:52:36.886Z,5.87
2023-02-19T12:55:32.215Z,5.94
2023-02-19T12:58:25.293Z,6.03
2023-02-19T13:01:14.368Z,6.11
2023-02-19T13:04:00.312Z,6.15
2023-02-19T13:06:53.179Z,6.10
2023-02-19T13:09:44.255Z,6.04
2023-02-19T13:12:32.132Z,5.92
2023-02-19T13:15:38.124Z,5.75
2023-02-19T13:18:49.287Z,5.55
2023-02-19T13:21:53.140Z,5.46
2023-02-19T13:24:41.763Z,5.50
2023-02-19T13:27:32.130Z,5.56
2023-02-19T13:30:35.394Z,5.49
2023-02-19T13:33:32.134Z,5.42
2023-02-19T13:36:23.347Z,5.42
2023-02-19T13:38:59.849Z,5.53
2023-02-19T13:41:55.118Z,5.69
2023-02-19T13:44:32.067Z,5.70
2023-02-19T13:47:59.355Z,5.63
2023-02-19T13:50:47.565Z,5.56
2023-02-19T13:53:55.129Z,5.47
2023-02-19T13:56:43.317Z,5.42
2023-02-19T13:59:26.174Z,5.34
2023-02-19T14:02:38.226Z,5.25
2023-02-19T14:06:06.908Z,5.13
2023-02-19T14:09:12.370Z,4.97
2023-02-19T14:12:21.532Z,4.95
2023-02-19T14:15:51.193Z,5.09
2023-02-19T14:18:57.145Z,4.93
2023-02-19T14:21:40.663Z,4.76
2023-02-19T14:24:30.142Z,4.66
2023-02-19T14:27:12.466Z,4.63
2023-02-19T14:29:53.873Z,4.58
2023-02-19T14:32:35.135Z,4.51
2023-02-19T14:35:30.346Z,4.39
2023-02-19T14:38:13.125Z,4.25
2023-02-19T14:40:56.262Z,4.07
2023-02-19T14:46:44.307Z,3.77
2023-02-19T14:49:34.187Z,3.67
2023-02-19T14:52:26.838Z,3.69
2023-02-19T14:55:20.145Z,3.69
2023-02-19T14:57:58.355Z,3.67
2023-02-19T15:00:49.179Z,3.64
2023-02-19T15:03:43.163Z,3.62
2023-02-19T15:06:38.119Z,3.60
2023-02-19T15:09:27.125Z,3.64
2023-02-19T15:12:03.021Z,3.66
2023-02-19T15:14:52.266Z,3.67
2023-02-19T15:17:43.201Z,3.68
2023-02-19T15:20:20.337Z,3.67
2023-02-19T15:23:10.137Z,3.64
2023-02-19T15:25:45.836Z,3.61
2023-02-19T15:28:40.116Z,3.60
2023-02-19T15:31:30.225Z,3.59
2023-02-19T15:34:24.175Z,3.56
2023-02-19T15:37:10.113Z,3.53
2023-02-19T15:40:06.133Z,3.50
2023-02-19T15:42:54.768Z,3.50
2023-02-19T15:45:48.119Z,3.50
2023-02-19T15:48:50.110Z,3.48
2023-02-19T15:51:41.119Z,3.46
2023-02-19T15:54:44.550Z,3.43
2023-02-19T15:57:30.110Z,3.40
2023-02-19T16:00:27.261Z,3.37
2023-02-19T16:03:02.191Z,3.32
2023-02-19T16:05:51.106Z,3.27
2023-02-19T16:08:35.200Z,3.24
2023-02-19T16:11:41.095Z,3.25
2023-02-19T16:14:24.089Z,3.25
2023-02-19T16:17:18.124Z,3.24
2023-02-19T16:20:01.735Z,3.24
2023-02-19T16:22:49.276Z,3.24
2023-02-19T16:25:51.126Z,3.24
2023-02-19T16:28:35.434Z,3.27
2023-02-19T16:31:20.518Z,3.30
2023-02-19T16:34:32.252Z,3.34
2023-02-19T16:38:12.252Z,3.34
2023-02-19T16:41:14.280Z,3.32
2023-02-19T16:43:50.225Z,3.29
2023-02-19T16:46:38.114Z,3.28
2023-02-19T16:49:20.237Z,3.30
2023-02-19T16:52:04.179Z,3.33
2023-02-19T16:54:46.067Z,3.35
2023-02-19T16:57:27.146Z,3.35
2023-02-19T17:00:19.555Z,3.35
2023-02-19T17:02:59.270Z,3.34
2023-02-19T17:05:47.326Z,3.34
2023-02-19T17:08:44.105Z,3.34
2023-02-19T17:11:25.255Z,3.38
2023-02-19T17:14:07.083Z,3.40
2023-02-19T17:16:55.090Z,3.42
2023-02-19T17:19:50.097Z,3.41
2023-02-19T17:22:38.990Z,3.41
2023-02-19T17:25:14.235Z,3.40
2023-02-19T17:28:02.099Z,3.37
2023-02-19T17:30:40.007Z,3.38
2023-02-19T17:33:38.265Z,3.41
2023-02-19T17:36:45.089Z,3.44
2023-02-19T17:39:33.125Z,3.44
2023-02-19T17:42:08.572Z,3.44
2023-02-19T17:44:57.265Z,3.43
2023-02-19T17:47:39.093Z,3.40
2023-02-19T17:50:38.278Z,3.38
2023-02-19T17:53:26.098Z,3.39
2023-02-19T17:56:01.351Z,3.37
2023-02-19T17:58:49.229Z,3.36
2023-02-19T18:01:25.407Z,3.32
2023-02-19T18:04:18.170Z,3.27
2023-02-19T18:06:54.174Z,3.21
2023-02-19T18:09:42.093Z,3.14
2023-02-19T18:12:24.087Z,3.06
2023-02-19T18:15:09.426Z,2.97
2023-02-19T18:17:58.112Z,2.92
2023-02-19T18:20:40.525Z,2.85
2023-02-19T18:23:30.113Z,2.77
2023-02-19T18:26:14.078Z,2.70
2023-02-19T18:28:55.218Z,2.62
2023-02-19T18:31:39.271Z,2.56
2023-02-19T18:34:34.095Z,2.53
2023-02-19T18:37:23.259Z,2.51
2023-02-19T18:40:01.516Z,2.49
2023-02-19T18:42:51.305Z,2.49
2023-02-19T18:45:26.348Z,2.47
2023-02-19T18:48:14.081Z,2.46
2023-02-19T18:50:49.470Z,2.44
2023-02-19T18:53:37.269Z,2.41
2023-02-19T18:56:13.325Z,2.38
2023-02-19T18:59:02.102Z,2.38
2023-02-19T19:01:44.243Z,2.35
2023-02-19T19:04:25.600Z,2.29
2023-02-19T19:07:14.386Z,2.25
2023-02-19T19:09:50.265Z,2.19
2023-02-19T19:12:38.079Z,2.14
2023-02-19T19:15:28.486Z,2.09
2023-02-19T19:18:12.236Z,2.07
2023-02-19T19:20:53.468Z,2.06
2023-02-19T19:23:37.260Z,2.07
2023-02-19T19:26:20.143Z,2.08
2023-02-19T19:29:01.353Z,2.09
2023-02-19T19:31:45.364Z,2.12
2023-02-19T19:34:45.080Z,2.17
2023-02-19T19:37:41.479Z,2.23
2023-02-19T19:40:30.062Z,2.29
2023-02-19T19:43:13.273Z,2.32
2023-02-19T19:46:09.345Z,2.34
2023-02-19T19:48:47.264Z,2.36
2023-02-19T19:51:40.080Z,2.37
2023-02-19T19:54:15.250Z,2.38
2023-02-19T19:57:03.083Z,2.40
2023-02-19T19:59:39.637Z,2.39
2023-02-19T20:02:30.103Z,2.37
2023-02-19T20:05:07.130Z,2.32
2023-02-19T20:07:56.102Z,2.25
2023-02-19T20:10:31.409Z,2.17
2023-02-19T20:13:25.565Z,2.13
2023-02-19T20:16:00.475Z,2.08
2023-02-19T20:18:49.362Z,2.01
2023-02-19T20:21:31.166Z,1.95
2023-02-19T20:24:35.281Z,1.90
2023-02-19T20:27:25.178Z,1.84
2023-02-19T20:30:08.353Z,1.81
2023-02-19T20:33:04.224Z,1.77
2023-02-19T20:35:55.657Z,1.73
2023-02-19T20:38:37.304Z,1.67
2023-02-19T20:41:20.335Z,1.62
2023-02-19T20:44:09.073Z,1.59
2023-02-19T20:46:53.200Z,1.60
2023-02-19T20:49:44.355Z,1.60
2023-02-19T20:52:26.675Z,1.59
2023-02-19T20:55:19.015Z,1.59
2023-02-19T20:58:01.165Z,1.57
2023-02-19T21:00:49.084Z,1.55
2023-02-19T21:03:30.050Z,1.56
2023-02-19T21:06:11.592Z,1.53
2023-02-19T21:08:53.192Z,1.50
2023-02-19T21:11:42.195Z,1.46
2023-02-19T21:14:18.203Z,1.44
2023-02-19T21:17:07.057Z,1.43
2023-02-19T21:19:41.666Z,1.44
2023-02-19T21:22:30.044Z,1.44
2023-02-19T21:25:13.070Z,1.42
2023-02-19T21:27:54.246Z,1.39
2023-02-19T21:30:35.087Z,1.36
2023-02-19T21:33:30.056Z,1.34
2023-02-19T21:36:38.054Z,1.36
2023-02-19T21:39:14.261Z,1.37
2023-02-19T21:42:02.053Z,1.36
2023-02-19T21:44:44.179Z,1.33
2023-02-19T21:47:39.079Z,1.30
2023-02-19T21:50:35.039Z,1.30
2023-02-19T21:53:23.038Z,1.33
2023-02-19T21:55:59.189Z,1.34
2023-02-19T21:58:47.047Z,1.34
2023-02-19T22:01:51.313Z,1.32
2023-02-19T22:04:50.716Z,1.30
2023-02-19T22:07:41.042Z,1.31
2023-02-19T22:10:16.931Z,1.30
2023-02-19T22:13:18.629Z,1.30
2023-02-19T22:16:09.249Z,1.30
2023-02-19T22:18:59.062Z,1.29
2023-02-19T22:21:53.402Z,1.26
2023-02-19T22:24:42.172Z,1.26
2023-02-19T22:27:19.315Z,1.30
2023-02-19T22:30:07.283Z,1.29
2023-02-19T22:32:56.128Z,1.27
2023-02-19T22:35:44.221Z,1.24
2023-02-19T22:38:27.813Z,1.21
2023-02-19T22:41:10.297Z,1.21
2023-02-19T22:43:53.303Z,1.21
2023-02-19T22:46:37.032Z,1.20
2023-02-19T22:49:18.206Z,1.19
2023-02-19T22:52:02.070Z,1.17
2023-02-19T22:54:51.219Z,1.15
2023-02-19T22:57:26.834Z,1.15
2023-02-19T23:00:16.360Z,1.14
2023-02-19T23:02:52.041Z,1.13
2023-02-19T23:05:41.267Z,1.10
2023-02-19T23:08:23.163Z,1.06
2023-02-19T23:11:05.176Z,1.02
2023-02-19T23:13:49.031Z,0.95
2023-02-19T23:16:33.065Z,0.93
2023-02-19T23:19:18.056Z,0.94
2023-02-19T23:22:07.013Z,0.94
2023-02-19T23:24:48.237Z,0.95
2023-02-19T23:27:29.162Z,0.96
2023-02-19T23:30:11.225Z,0.97
2023-02-19T23:32:52.143Z,0.97
2023-02-19T23:35:40.233Z,0.99
2023-02-19T23:38:21.434Z,1.04
2023-02-19T23:41:03.216Z,1.05
2023-02-19T23:43:45.156Z,1.07
2023-02-19T23:46:27.230Z,1.07
2023-02-19T23:49:09.209Z,1.07
2023-02-19T23:51:50.009Z,1.08
2023-02-19T23:54:32.303Z,1.13
2023-02-19T23:57:14.024Z,1.18
2023-02-19T23:59:55.244Z,1.21
